sensor_id;sensor_type;location;lat;lon;timestamp;pressure;altitude;pressure_sealevel;temperature;humidity
46598;BME280;32318;48.858;8.252;2023-11-21T00:02:01;99701.94;;;9.49;94.16
46598;BME280;32318;48.858;8.252;2023-11-21T00:10:02;99700.94;;;9.50;93.84
46598;BME280;32318;48.858;8.252;2023-11-21T00:18:02;99698.59;;;9.55;94.45
46598;BME280;32318;48.858;8.252;2023-11-21T00:26:03;99695.94;;;9.55;93.43
46598;BME280;32318;48.858;8.252;2023-11-21T00:34:04;99695.28;;;9.53;93.64
46598;BME280;32318;48.858;8.252;2023-11-21T00:42:07;99677.63;;;9.52;92.77
46598;BME280;32318;48.858;8.252;2023-11-21T00:50:08;99679.16;;;9.47;93.35
46598;BME280;32318;48.858;8.252;2023-11-21T00:58:09;99680.81;;;9.48;92.42
46598;BME280;32318;48.858;8.252;2023-11-21T01:06:11;99690.47;;;9.49;92.33
46598;BME280;32318;48.858;8.252;2023-11-21T01:14:12;99698.47;;;9.49;92.46
46598;BME280;32318;48.858;8.252;2023-11-21T01:22:16;99702.78;;;9.41;93.63
46598;BME280;32318;48.858;8.252;2023-11-21T01:30:17;99696.97;;;9.38;95.01
46598;BME280;32318;48.858;8.252;2023-11-21T01:38:17;99695.47;;;9.35;95.17
46598;BME280;32318;48.858;8.252;2023-11-21T01:46:21;99697.34;;;9.35;96.21
46598;BME280;32318;48.858;8.252;2023-11-21T01:54:21;99696.84;;;9.31;96.97
46598;BME280;32318;48.858;8.252;2023-11-21T02:02:22;99688.34;;;9.36;96.88
46598;BME280;32318;48.858;8.252;2023-11-21T02:10:22;99697.34;;;9.35;95.83
46598;BME280;32318;48.858;8.252;2023-11-21T02:18:23;99725.47;;;9.29;97.00
46598;BME280;32318;48.858;8.252;2023-11-21T02:26:23;99721.47;;;9.17;97.84
46598;BME280;32318;48.858;8.252;2023-11-21T02:34:25;99707.53;;;9.15;97.58
46598;BME280;32318;48.858;8.252;2023-11-21T02:42:25;99705.00;;;9.13;97.43
46598;BME280;32318;48.858;8.252;2023-11-21T02:50:26;99712.31;;;9.11;98.12
46598;BME280;32318;48.858;8.252;2023-11-21T02:58:27;99709.66;;;9.11;98.09
46598;BME280;32318;48.858;8.252;2023-11-21T03:06:27;99700.03;;;9.10;98.95
46598;BME280;32318;48.858;8.252;2023-11-21T03:14:27;99686.38;;;9.05;99.43
46598;BME280;32318;48.858;8.252;2023-11-21T03:22:28;99684.22;;;9.00;99.22
46598;BME280;32318;48.858;8.252;2023-11-21T03:30:28;99698.69;;;8.98;99.84
46598;BME280;32318;48.858;8.252;2023-11-21T03:38:28;99689.34;;;9.02;100.00
46598;BME280;32318;48.858;8.252;2023-11-21T03:46:28;99692.69;;;9.04;98.99
46598;BME280;32318;48.858;8.252;2023-11-21T03:54:29;99697.19;;;9.03;99.35
46598;BME280;32318;48.858;8.252;2023-11-21T04:02:29;99708.66;;;9.04;100.00
46598;BME280;32318;48.858;8.252;2023-11-21T04:10:31;99715.00;;;9.03;98.76
46598;BME280;32318;48.858;8.252;2023-11-21T04:18:31;99721.00;;;8.97;100.00
46598;BME280;32318;48.858;8.252;2023-11-21T04:26:32;99733.31;;;8.98;100.00
46598;BME280;32318;48.858;8.252;2023-11-21T04:34:32;99734.81;;;8.92;100.00
46598;BME280;32318;48.858;8.252;2023-11-21T04:42:35;99739.13;;;8.93;100.00
46598;BME280;32318;48.858;8.252;2023-11-21T04:50:36;99749.94;;;8.91;100.00
46598;BME280;32318;48.858;8.252;2023-11-21T04:58:37;99751.94;;;8.89;100.00
46598;BME280;32318;48.858;8.252;2023-11-21T05:06:42;99759.94;;;8.89;100.00
46598;BME280;32318;48.858;8.252;2023-11-21T05:14:42;99764.59;;;8.87;100.00
46598;BME280;32318;48.858;8.252;2023-11-21T05:22:43;99770.25;;;8.84;100.00
46598;BME280;32318;48.858;8.252;2023-11-21T05:30:44;99775.91;;;8.81;100.00
46598;BME280;32318;48.858;8.252;2023-11-21T05:38:44;99785.38;;;8.84;100.00
46598;BME280;32318;48.858;8.252;2023-11-21T05:46:44;99789.72;;;8.85;100.00
46598;BME280;32318;48.858;8.252;2023-11-21T05:54:48;99807.19;;;8.87;100.00
46598;BME280;32318;48.858;8.252;2023-11-21T06:02:49;99808.50;;;8.83;100.00
46598;BME280;32318;48.858;8.252;2023-11-21T06:10:52;99813.16;;;8.81;100.00
46598;BME280;32318;48.858;8.252;2023-11-21T06:18:53;99819.31;;;8.82;100.00
46598;BME280;32318;48.858;8.252;2023-11-21T06:26:53;99815.50;;;8.84;100.00
46598;BME280;32318;48.858;8.252;2023-11-21T06:34:54;99835.63;;;8.78;100.00
46598;BME280;32318;48.858;8.252;2023-11-21T06:42:54;99841.25;;;8.75;100.00
46598;BME280;32318;48.858;8.252;2023-11-21T06:50:55;99840.09;;;8.78;100.00
46598;BME280;32318;48.858;8.252;2023-11-21T06:58:58;99847.41;;;8.76;100.00
46598;BME280;32318;48.858;8.252;2023-11-21T07:06:58;99860.72;;;8.76;100.00
46598;BME280;32318;48.858;8.252;2023-11-21T07:14:59;99878.84;;;8.81;100.00
46598;BME280;32318;48.858;8.252;2023-11-21T07:22:59;99886.72;;;8.90;100.00
46598;BME280;32318;48.858;8.252;2023-11-21T07:31:00;99897.19;;;8.92;100.00
46598;BME280;32318;48.858;8.252;2023-11-21T07:39:00;99896.34;;;8.83;100.00
46598;BME280;32318;48.858;8.252;2023-11-21T07:47:02;99906.63;;;8.78;100.00
46598;BME280;32318;48.858;8.252;2023-11-21T07:55:05;99919.47;;;8.83;100.00
46598;BME280;32318;48.858;8.252;2023-11-21T08:03:05;99924.13;;;8.89;100.00
46598;BME280;32318;48.858;8.252;2023-11-21T08:11:08;99923.66;;;8.93;100.00
46598;BME280;32318;48.858;8.252;2023-11-21T08:19:10;99932.13;;;8.89;100.00
46598;BME280;32318;48.858;8.252;2023-11-21T08:27:11;99949.13;;;8.88;100.00
46598;BME280;32318;48.858;8.252;2023-11-21T08:35:11;99953.28;;;8.90;100.00
46598;BME280;32318;48.858;8.252;2023-11-21T08:43:15;99957.75;;;8.90;100.00
46598;BME280;32318;48.858;8.252;2023-11-21T08:51:16;99971.28;;;8.97;100.00
46598;BME280;32318;48.858;8.252;2023-11-21T08:59:16;99975.28;;;9.01;100.00
46598;BME280;32318;48.858;8.252;2023-11-21T09:07:17;99984.94;;;9.02;100.00
46598;BME280;32318;48.858;8.252;2023-11-21T09:15:19;99986.28;;;9.06;100.00
46598;BME280;32318;48.858;8.252;2023-11-21T09:23:20;100000.66;;;9.21;100.00
46598;BME280;32318;48.858;8.252;2023-11-21T09:31:20;100005.53;;;9.34;100.00
46598;BME280;32318;48.858;8.252;2023-11-21T09:39:22;100013.22;;;9.46;100.00
46598;BME280;32318;48.858;8.252;2023-11-21T09:47:23;100023.56;;;9.49;100.00
46598;BME280;32318;48.858;8.252;2023-11-21T09:55:26;100033.56;;;9.55;100.00
46598;BME280;32318;48.858;8.252;2023-11-21T10:03:27;100038.41;;;9.51;99.27
46598;BME280;32318;48.858;8.252;2023-11-21T10:11:28;100030.88;;;9.47;98.66
46598;BME280;32318;48.858;8.252;2023-11-21T10:19:30;100038.72;;;9.48;96.80
46598;BME280;32318;48.858;8.252;2023-11-21T10:27:31;100039.56;;;9.49;96.93
46598;BME280;32318;48.858;8.252;2023-11-21T10:35:48;100041.03;;;9.43;97.87
46598;BME280;32318;48.858;8.252;2023-11-21T10:43:53;100052.00;;;9.40;97.69
46598;BME280;32318;48.858;8.252;2023-11-21T10:51:56;100045.69;;;9.41;97.82
46598;BME280;32318;48.858;8.252;2023-11-21T10:59:57;100062.34;;;9.43;97.10
46598;BME280;32318;48.858;8.252;2023-11-21T11:07:59;100064.53;;;9.48;96.76
46598;BME280;32318;48.858;8.252;2023-11-21T11:16:01;100061.72;;;9.49;96.58
46598;BME280;32318;48.858;8.252;2023-11-21T11:32:40;100088.09;;;9.69;94.99
46598;BME280;32318;48.858;8.252;2023-11-21T11:40:45;100077.00;;;9.47;95.58
46598;BME280;32318;48.858;8.252;2023-11-21T11:49:02;100073.13;;;9.33;97.61
46598;BME280;32318;48.858;8.252;2023-11-21T11:57:03;100083.91;;;9.23;99.22
46598;BME280;32318;48.858;8.252;2023-11-21T12:05:14;100067.94;;;9.23;100.00
46598;BME280;32318;48.858;8.252;2023-11-21T12:13:15;100071.75;;;9.21;100.00
46598;BME280;32318;48.858;8.252;2023-11-21T12:21:19;100079.28;;;9.25;100.00
46598;BME280;32318;48.858;8.252;2023-11-21T12:29:20;100067.66;;;9.35;100.00
46598;BME280;32318;48.858;8.252;2023-11-21T12:37:20;100091.91;;;9.23;100.00
46598;BME280;32318;48.858;8.252;2023-11-21T12:45:26;100095.56;;;9.22;100.00
46598;BME280;32318;48.858;8.252;2023-11-21T12:53:27;100106.72;;;9.26;100.00
46598;BME280;32318;48.858;8.252;2023-11-21T13:01:35;100099.31;;;9.46;99.56
46598;BME280;32318;48.858;8.252;2023-11-21T13:09:37;100107.31;;;9.46;98.44
46598;BME280;32318;48.858;8.252;2023-11-21T13:17:38;100110.50;;;9.50;98.58
46598;BME280;32318;48.858;8.252;2023-11-21T13:25:41;100127.34;;;9.50;99.80
46598;BME280;32318;48.858;8.252;2023-11-21T13:33:42;100124.66;;;9.50;100.00
46598;BME280;32318;48.858;8.252;2023-11-21T13:41:47;100134.22;;;9.61;99.03
46598;BME280;32318;48.858;8.252;2023-11-21T13:49:50;100139.69;;;9.60;97.92
46598;BME280;32318;48.858;8.252;2023-11-21T13:57:51;100134.72;;;9.65;97.60
46598;BME280;32318;48.858;8.252;2023-11-21T14:05:52;100152.03;;;9.61;97.56
46598;BME280;32318;48.858;8.252;2023-11-21T14:13:53;100163.00;;;9.57;97.05
46598;BME280;32318;48.858;8.252;2023-11-21T14:21:53;100177.13;;;9.50;98.28
46598;BME280;32318;48.858;8.252;2023-11-21T14:29:57;100188.13;;;9.47;98.01
46598;BME280;32318;48.858;8.252;2023-11-21T14:37:59;100192.28;;;9.49;99.09
46598;BME280;32318;48.858;8.252;2023-11-21T14:46:00;100208.63;;;9.54;99.09
46598;BME280;32318;48.858;8.252;2023-11-21T14:54:02;100204.97;;;9.55;97.77
46598;BME280;32318;48.858;8.252;2023-11-21T15:02:07;100215.63;;;9.55;97.26
46598;BME280;32318;48.858;8.252;2023-11-21T15:10:22;100233.00;;;9.60;97.13
46598;BME280;32318;48.858;8.252;2023-11-21T15:18:31;100234.47;;;9.54;97.93
46598;BME280;32318;48.858;8.252;2023-11-21T15:26:38;100239.56;;;9.47;98.74
46598;BME280;32318;48.858;8.252;2023-11-21T15:34:39;100243.88;;;9.40;98.88
46598;BME280;32318;48.858;8.252;2023-11-21T15:42:39;100244.50;;;9.34;99.10
46598;BME280;32318;48.858;8.252;2023-11-21T15:50:42;100256.50;;;9.38;100.00
46598;BME280;32318;48.858;8.252;2023-11-21T15:58:42;100260.38;;;9.44;100.00
46598;BME280;32318;48.858;8.252;2023-11-21T16:06:43;100267.41;;;9.71;99.63
46598;BME280;32318;48.858;8.252;2023-11-21T16:14:44;100285.28;;;9.87;98.85
46598;BME280;32318;48.858;8.252;2023-11-21T16:22:49;100292.19;;;9.98;98.25
46598;BME280;32318;48.858;8.252;2023-11-21T16:30:50;100311.38;;;10.01;97.19
46598;BME280;32318;48.858;8.252;2023-11-21T16:38:50;100322.38;;;9.98;96.13
46598;BME280;32318;48.858;8.252;2023-11-21T16:46:54;100347.88;;;10.01;95.06
46598;BME280;32318;48.858;8.252;2023-11-21T16:54:56;100358.25;;;10.04;95.79
46598;BME280;32318;48.858;8.252;2023-11-21T17:02:57;100360.22;;;10.02;94.86
46598;BME280;32318;48.858;8.252;2023-11-21T17:10:57;100375.88;;;9.97;93.87
46598;BME280;32318;48.858;8.252;2023-11-21T17:18:58;100377.38;;;9.99;95.30
46598;BME280;32318;48.858;8.252;2023-11-21T17:26:59;100383.19;;;9.95;94.59
46598;BME280;32318;48.858;8.252;2023-11-21T17:35:00;100390.16;;;9.87;93.57
46598;BME280;32318;48.858;8.252;2023-11-21T17:43:01;100420.25;;;9.80;94.35
46598;BME280;32318;48.858;8.252;2023-11-21T17:51:02;100424.06;;;9.77;95.02
46598;BME280;32318;48.858;8.252;2023-11-21T17:59:06;100443.34;;;9.71;94.31
46598;BME280;32318;48.858;8.252;2023-11-21T18:07:06;100447.00;;;9.70;94.70
46598;BME280;32318;48.858;8.252;2023-11-21T18:15:07;100452.63;;;9.67;94.70
46598;BME280;32318;48.858;8.252;2023-11-21T18:23:08;100458.94;;;9.66;95.07
46598;BME280;32318;48.858;8.252;2023-11-21T18:31:09;100461.91;;;9.63;94.91
46598;BME280;32318;48.858;8.252;2023-11-21T18:39:09;100478.84;;;9.53;95.39
46598;BME280;32318;48.858;8.252;2023-11-21T18:47:14;100490.88;;;9.57;95.91
46598;BME280;32318;48.858;8.252;2023-11-21T18:55:20;100503.28;;;9.49;95.52
46598;BME280;32318;48.858;8.252;2023-11-21T19:03:20;100510.06;;;9.43;95.70
46598;BME280;32318;48.858;8.252;2023-11-21T19:11:21;100526.88;;;9.44;95.94
46598;BME280;32318;48.858;8.252;2023-11-21T19:19:27;100527.47;;;9.37;95.89
46598;BME280;32318;48.858;8.252;2023-11-21T19:27:28;100542.06;;;9.33;96.26
46598;BME280;32318;48.858;8.252;2023-11-21T19:35:28;100558.94;;;9.24;95.15
46598;BME280;32318;48.858;8.252;2023-11-21T19:43:34;100569.06;;;9.20;93.77
46598;BME280;32318;48.858;8.252;2023-11-21T19:51:36;100580.78;;;9.00;93.33
46598;BME280;32318;48.858;8.252;2023-11-21T19:59:36;100588.34;;;8.94;91.48
46598;BME280;32318;48.858;8.252;2023-11-21T20:07:42;100602.59;;;8.66;92.43
46598;BME280;32318;48.858;8.252;2023-11-21T20:15:43;100611.84;;;8.52;93.09
46598;BME280;32318;48.858;8.252;2023-11-21T20:23:44;100612.69;;;8.52;94.71
46598;BME280;32318;48.858;8.252;2023-11-21T20:31:49;100627.94;;;8.70;97.32
46598;BME280;32318;48.858;8.252;2023-11-21T20:39:51;100634.78;;;8.82;98.47
46598;BME280;32318;48.858;8.252;2023-11-21T20:47:52;100633.22;;;8.89;98.76
46598;BME280;32318;48.858;8.252;2023-11-21T20:55:52;100645.56;;;8.90;98.62
46598;BME280;32318;48.858;8.252;2023-11-21T21:03:52;100629.97;;;8.95;99.50
46598;BME280;32318;48.858;8.252;2023-11-21T21:11:53;100633.19;;;8.99;98.99
46598;BME280;32318;48.858;8.252;2023-11-21T21:19:53;100644.41;;;9.03;99.87
46598;BME280;32318;48.858;8.252;2023-11-21T21:27:53;100644.13;;;9.06;99.52
46598;BME280;32318;48.858;8.252;2023-11-21T21:35:54;100642.28;;;9.06;99.03
46598;BME280;32318;48.858;8.252;2023-11-21T21:43:55;100645.97;;;9.05;98.73
46598;BME280;32318;48.858;8.252;2023-11-21T21:51:55;100640.06;;;9.02;99.68
46598;BME280;32318;48.858;8.252;2023-11-21T21:59:56;100630.84;;;8.96;99.39
46598;BME280;32318;48.858;8.252;2023-11-21T22:07:56;100640.50;;;8.97;100.00
46598;BME280;32318;48.858;8.252;2023-11-21T22:15:57;100646.94;;;8.94;99.99
46598;BME280;32318;48.858;8.252;2023-11-21T22:23:57;100658.44;;;8.95;100.00
46598;BME280;32318;48.858;8.252;2023-11-21T22:31:57;100665.59;;;8.94;100.00
46598;BME280;32318;48.858;8.252;2023-11-21T22:39:57;100670.09;;;8.94;100.00
46598;BME280;32318;48.858;8.252;2023-11-21T22:47:58;100665.59;;;8.94;100.00
46598;BME280;32318;48.858;8.252;2023-11-21T22:55:58;100670.22;;;8.92;100.00
46598;BME280;32318;48.858;8.252;2023-11-21T23:03:58;100685.19;;;8.93;100.00
46598;BME280;32318;48.858;8.252;2023-11-21T23:11:59;100681.88;;;8.91;100.00
46598;BME280;32318;48.858;8.252;2023-11-21T23:20:00;100697.53;;;9.04;95.60
46598;BME280;32318;48.858;8.252;2023-11-21T23:28:05;100715.78;;;8.89;87.97
46598;BME280;32318;48.858;8.252;2023-11-21T23:36:08;100715.41;;;8.14;90.00
46598;BME280;32318;48.858;8.252;2023-11-21T23:44:08;100718.81;;;7.85;91.14
46598;BME280;32318;48.858;8.252;2023-11-21T23:52:08;100713.59;;;7.74;88.97
